sensor_id;sensor_type;location;lat;lon;timestamp;temperature;humidity
38854;DHT22;24606;51.992;4.198;2024-01-30T00:03:12;16.30;99.90
38854;DHT22;24606;51.992;4.198;2024-01-30T00:08:14;16.40;99.90
38854;DHT22;24606;51.992;4.198;2024-01-30T00:13:15;16.50;99.90
38854;DHT22;24606;51.992;4.198;2024-01-30T00:18:21;16.50;99.90
38854;DHT22;24606;51.992;4.198;2024-01-30T00:23:23;16.60;99.90
38854;DHT22;24606;51.992;4.198;2024-01-30T00:28:25;16.20;99.90
38854;DHT22;24606;51.992;4.198;2024-01-30T00:33:28;15.90;99.90
38854;DHT22;24606;51.992;4.198;2024-01-30T00:38:30;15.80;99.90
38854;DHT22;24606;51.992;4.198;2024-01-30T00:43:32;15.30;99.90
38854;DHT22;24606;51.992;4.198;2024-01-30T00:48:35;15.70;99.90
38854;DHT22;24606;51.992;4.198;2024-01-30T00:53:37;15.50;99.90
38854;DHT22;24606;51.992;4.198;2024-01-30T00:58:39;15.00;99.90
38854;DHT22;24606;51.992;4.198;2024-01-30T01:03:43;15.60;99.90
38854;DHT22;24606;51.992;4.198;2024-01-30T01:08:45;15.50;99.90
38854;DHT22;24606;51.992;4.198;2024-01-30T01:13:47;15.30;99.90
38854;DHT22;24606;51.992;4.198;2024-01-30T01:18:50;15.70;99.90
38854;DHT22;24606;51.992;4.198;2024-01-30T01:23:52;16.10;99.90
38854;DHT22;24606;51.992;4.198;2024-01-30T01:28:54;15.90;99.90
38854;DHT22;24606;51.992;4.198;2024-01-30T01:33:58;15.50;99.90
38854;DHT22;24606;51.992;4.198;2024-01-30T01:39:00;15.50;99.90
38854;DHT22;24606;51.992;4.198;2024-01-30T01:44:01;15.70;99.90
38854;DHT22;24606;51.992;4.198;2024-01-30T01:49:05;15.50;99.90
38854;DHT22;24606;51.992;4.198;2024-01-30T01:54:08;15.50;99.90
38854;DHT22;24606;51.992;4.198;2024-01-30T01:59:10;15.50;99.90
38854;DHT22;24606;51.992;4.198;2024-01-30T02:04:14;15.60;99.90
38854;DHT22;24606;51.992;4.198;2024-01-30T02:09:16;15.60;99.90
38854;DHT22;24606;51.992;4.198;2024-01-30T02:14:18;15.50;99.90
38854;DHT22;24606;51.992;4.198;2024-01-30T02:19:21;15.50;99.90
38854;DHT22;24606;51.992;4.198;2024-01-30T02:24:24;15.30;99.90
38854;DHT22;24606;51.992;4.198;2024-01-30T02:29:26;15.00;99.90
38854;DHT22;24606;51.992;4.198;2024-01-30T02:34:28;15.20;99.90
38854;DHT22;24606;51.992;4.198;2024-01-30T02:39:31;15.80;99.90
38854;DHT22;24606;51.992;4.198;2024-01-30T02:44:33;15.90;99.90
38854;DHT22;24606;51.992;4.198;2024-01-30T02:49:36;15.70;99.90
38854;DHT22;24606;51.992;4.198;2024-01-30T02:54:39;15.60;99.90
38854;DHT22;24606;51.992;4.198;2024-01-30T02:59:41;15.60;99.90
38854;DHT22;24606;51.992;4.198;2024-01-30T03:04:43;15.70;99.90
38854;DHT22;24606;51.992;4.198;2024-01-30T03:09:46;15.10;99.90
38854;DHT22;24606;51.992;4.198;2024-01-30T03:14:49;15.30;99.90
38854;DHT22;24606;51.992;4.198;2024-01-30T03:19:51;15.50;99.90
38854;DHT22;24606;51.992;4.198;2024-01-30T03:24:54;15.40;99.90
38854;DHT22;24606;51.992;4.198;2024-01-30T03:29:56;15.40;99.90
38854;DHT22;24606;51.992;4.198;2024-01-30T03:34:59;15.20;99.90
38854;DHT22;24606;51.992;4.198;2024-01-30T03:40:03;15.30;99.90
38854;DHT22;24606;51.992;4.198;2024-01-30T03:45:07;15.20;99.90
38854;DHT22;24606;51.992;4.198;2024-01-30T03:50:09;15.20;99.90
38854;DHT22;24606;51.992;4.198;2024-01-30T03:55:13;15.30;99.90
38854;DHT22;24606;51.992;4.198;2024-01-30T04:00:15;15.80;99.90
38854;DHT22;24606;51.992;4.198;2024-01-30T04:05:17;15.30;99.90
38854;DHT22;24606;51.992;4.198;2024-01-30T04:15:30;15.40;99.90
38854;DHT22;24606;51.992;4.198;2024-01-30T04:20:33;15.70;99.90
38854;DHT22;24606;51.992;4.198;2024-01-30T04:25:35;15.40;99.90
38854;DHT22;24606;51.992;4.198;2024-01-30T04:30:38;15.10;99.90
38854;DHT22;24606;51.992;4.198;2024-01-30T04:35:41;15.40;99.90
38854;DHT22;24606;51.992;4.198;2024-01-30T04:40:43;15.60;99.90
38854;DHT22;24606;51.992;4.198;2024-01-30T04:45:46;15.00;99.90
38854;DHT22;24606;51.992;4.198;2024-01-30T04:50:48;14.80;99.90
38854;DHT22;24606;51.992;4.198;2024-01-30T04:55:50;14.60;99.90
38854;DHT22;24606;51.992;4.198;2024-01-30T05:00:56;14.50;99.90
38854;DHT22;24606;51.992;4.198;2024-01-30T05:05:58;15.00;99.90
38854;DHT22;24606;51.992;4.198;2024-01-30T05:11:00;15.20;99.90
38854;DHT22;24606;51.992;4.198;2024-01-30T05:16:05;15.10;99.90
38854;DHT22;24606;51.992;4.198;2024-01-30T05:21:08;15.40;99.90
38854;DHT22;24606;51.992;4.198;2024-01-30T05:26:10;15.40;99.90
38854;DHT22;24606;51.992;4.198;2024-01-30T05:31:13;16.00;99.90
38854;DHT22;24606;51.992;4.198;2024-01-30T05:36:15;16.20;99.90
38854;DHT22;24606;51.992;4.198;2024-01-30T05:41:17;16.40;99.90
38854;DHT22;24606;51.992;4.198;2024-01-30T05:46:20;16.40;99.90
38854;DHT22;24606;51.992;4.198;2024-01-30T05:51:22;16.50;99.90
38854;DHT22;24606;51.992;4.198;2024-01-30T05:56:24;16.50;99.90
38854;DHT22;24606;51.992;4.198;2024-01-30T06:01:28;16.60;99.90
38854;DHT22;24606;51.992;4.198;2024-01-30T06:06:29;16.30;99.90
38854;DHT22;24606;51.992;4.198;2024-01-30T06:11:32;16.50;99.90
38854;DHT22;24606;51.992;4.198;2024-01-30T06:16:35;15.90;99.90
38854;DHT22;24606;51.992;4.198;2024-01-30T06:21:37;16.10;99.90
38854;DHT22;24606;51.992;4.198;2024-01-30T06:26:39;16.10;99.90
38854;DHT22;24606;51.992;4.198;2024-01-30T06:31:43;15.80;99.90
38854;DHT22;24606;51.992;4.198;2024-01-30T06:36:45;15.70;99.90
38854;DHT22;24606;51.992;4.198;2024-01-30T06:41:47;15.60;99.90
38854;DHT22;24606;51.992;4.198;2024-01-30T06:46:50;15.60;99.90
38854;DHT22;24606;51.992;4.198;2024-01-30T06:51:52;15.70;99.90
38854;DHT22;24606;51.992;4.198;2024-01-30T06:56:54;16.40;99.90
38854;DHT22;24606;51.992;4.198;2024-01-30T07:01:57;16.00;99.90
38854;DHT22;24606;51.992;4.198;2024-01-30T07:06:59;16.20;99.90
38854;DHT22;24606;51.992;4.198;2024-01-30T07:12:01;15.90;99.90
38854;DHT22;24606;51.992;4.198;2024-01-30T07:17:05;15.90;99.90
38854;DHT22;24606;51.992;4.198;2024-01-30T07:22:08;15.50;99.90
38854;DHT22;24606;51.992;4.198;2024-01-30T07:27:10;13.90;99.90
38854;DHT22;24606;51.992;4.198;2024-01-30T07:32:13;14.00;99.90
38854;DHT22;24606;51.992;4.198;2024-01-30T07:37:15;12.60;99.90
38854;DHT22;24606;51.992;4.198;2024-01-30T07:42:17;12.40;99.90
38854;DHT22;24606;51.992;4.198;2024-01-30T07:47:20;12.30;99.90
38854;DHT22;24606;51.992;4.198;2024-01-30T07:52:23;12.10;99.90
38854;DHT22;24606;51.992;4.198;2024-01-30T07:57:25;12.00;99.90
38854;DHT22;24606;51.992;4.198;2024-01-30T08:02:28;12.10;99.90
38854;DHT22;24606;51.992;4.198;2024-01-30T08:07:30;12.00;99.90
38854;DHT22;24606;51.992;4.198;2024-01-30T08:12:32;11.70;99.90
38854;DHT22;24606;51.992;4.198;2024-01-30T08:17:35;11.50;99.90
38854;DHT22;24606;51.992;4.198;2024-01-30T08:22:38;11.60;99.90
38854;DHT22;24606;51.992;4.198;2024-01-30T08:27:40;11.60;99.90
38854;DHT22;24606;51.992;4.198;2024-01-30T08:32:44;12.00;99.90
38854;DHT22;24606;51.992;4.198;2024-01-30T08:37:46;11.60;99.90
38854;DHT22;24606;51.992;4.198;2024-01-30T08:42:48;11.90;99.90
38854;DHT22;24606;51.992;4.198;2024-01-30T08:47:51;11.70;99.90
38854;DHT22;24606;51.992;4.198;2024-01-30T08:52:53;11.40;99.90
38854;DHT22;24606;51.992;4.198;2024-01-30T08:57:56;12.00;99.90
38854;DHT22;24606;51.992;4.198;2024-01-30T09:02:59;11.70;99.90
38854;DHT22;24606;51.992;4.198;2024-01-30T09:08:01;11.50;99.90
38854;DHT22;24606;51.992;4.198;2024-01-30T09:13:03;10.90;99.90
38854;DHT22;24606;51.992;4.198;2024-01-30T09:18:07;10.40;99.90
38854;DHT22;24606;51.992;4.198;2024-01-30T09:23:09;10.30;99.90
38854;DHT22;24606;51.992;4.198;2024-01-30T09:28:11;10.40;99.90
38854;DHT22;24606;51.992;4.198;2024-01-30T09:33:14;10.50;99.90
38854;DHT22;24606;51.992;4.198;2024-01-30T09:38:17;10.60;99.90
38854;DHT22;24606;51.992;4.198;2024-01-30T09:43:22;10.40;99.90
38854;DHT22;24606;51.992;4.198;2024-01-30T09:48:26;10.30;99.90
38854;DHT22;24606;51.992;4.198;2024-01-30T09:53:28;10.60;99.90
38854;DHT22;24606;51.992;4.198;2024-01-30T09:58:30;10.10;99.90
38854;DHT22;24606;51.992;4.198;2024-01-30T10:03:34;10.20;99.90
38854;DHT22;24606;51.992;4.198;2024-01-30T10:08:36;10.00;99.90
38854;DHT22;24606;51.992;4.198;2024-01-30T10:13:39;9.90;99.90
38854;DHT22;24606;51.992;4.198;2024-01-30T10:18:42;9.70;99.90
38854;DHT22;24606;51.992;4.198;2024-01-30T10:23:44;9.80;99.90
38854;DHT22;24606;51.992;4.198;2024-01-30T10:28:47;9.70;99.90
38854;DHT22;24606;51.992;4.198;2024-01-30T10:33:51;9.60;99.90
38854;DHT22;24606;51.992;4.198;2024-01-30T10:38:55;9.50;99.90
38854;DHT22;24606;51.992;4.198;2024-01-30T10:44:05;9.60;99.90
38854;DHT22;24606;51.992;4.198;2024-01-30T10:49:12;8.90;99.90
38854;DHT22;24606;51.992;4.198;2024-01-30T10:54:15;8.80;99.90
38854;DHT22;24606;51.992;4.198;2024-01-30T10:59:18;8.90;99.90
38854;DHT22;24606;51.992;4.198;2024-01-30T11:04:22;8.80;99.90
38854;DHT22;24606;51.992;4.198;2024-01-30T11:09:24;9.10;99.90
38854;DHT22;24606;51.992;4.198;2024-01-30T11:14:26;9.00;99.90
38854;DHT22;24606;51.992;4.198;2024-01-30T11:19:31;9.20;99.90
38854;DHT22;24606;51.992;4.198;2024-01-30T11:24:39;9.40;99.90
38854;DHT22;24606;51.992;4.198;2024-01-30T11:29:42;9.70;99.90
38854;DHT22;24606;51.992;4.198;2024-01-30T11:34:45;9.40;99.90
38854;DHT22;24606;51.992;4.198;2024-01-30T11:39:48;9.40;99.90
38854;DHT22;24606;51.992;4.198;2024-01-30T11:44:50;9.50;99.90
38854;DHT22;24606;51.992;4.198;2024-01-30T11:49:54;9.60;99.90
38854;DHT22;24606;51.992;4.198;2024-01-30T11:54:56;9.40;99.90
38854;DHT22;24606;51.992;4.198;2024-01-30T11:59:58;9.40;99.90
38854;DHT22;24606;51.992;4.198;2024-01-30T12:05:04;9.60;99.90
38854;DHT22;24606;51.992;4.198;2024-01-30T12:10:09;9.70;99.90
38854;DHT22;24606;51.992;4.198;2024-01-30T12:15:12;9.70;99.90
38854;DHT22;24606;51.992;4.198;2024-01-30T12:20:18;9.80;99.90
38854;DHT22;24606;51.992;4.198;2024-01-30T12:25:22;9.50;99.90
38854;DHT22;24606;51.992;4.198;2024-01-30T12:30:24;9.80;99.90
38854;DHT22;24606;51.992;4.198;2024-01-30T12:35:28;9.70;99.90
38854;DHT22;24606;51.992;4.198;2024-01-30T12:40:33;10.00;99.90
38854;DHT22;24606;51.992;4.198;2024-01-30T12:45:36;9.20;99.90
38854;DHT22;24606;51.992;4.198;2024-01-30T12:50:39;9.00;99.90
38854;DHT22;24606;51.992;4.198;2024-01-30T12:55:41;9.40;99.90
38854;DHT22;24606;51.992;4.198;2024-01-30T13:00:43;9.30;99.90
38854;DHT22;24606;51.992;4.198;2024-01-30T13:05:47;9.20;99.90
38854;DHT22;24606;51.992;4.198;2024-01-30T13:10:49;9.30;99.90
38854;DHT22;24606;51.992;4.198;2024-01-30T13:15:51;9.40;99.90
38854;DHT22;24606;51.992;4.198;2024-01-30T13:20:54;9.10;99.90
38854;DHT22;24606;51.992;4.198;2024-01-30T13:25:56;9.10;99.90
38854;DHT22;24606;51.992;4.198;2024-01-30T13:30:59;9.40;99.90
38854;DHT22;24606;51.992;4.198;2024-01-30T13:36:03;9.10;99.90
38854;DHT22;24606;51.992;4.198;2024-01-30T13:41:05;9.20;99.90
38854;DHT22;24606;51.992;4.198;2024-01-30T13:46:09;9.20;99.90
38854;DHT22;24606;51.992;4.198;2024-01-30T13:51:12;9.00;99.90
38854;DHT22;24606;51.992;4.198;2024-01-30T13:56:14;9.20;99.90
38854;DHT22;24606;51.992;4.198;2024-01-30T14:01:19;9.20;99.90
38854;DHT22;24606;51.992;4.198;2024-01-30T14:06:22;9.40;99.90
38854;DHT22;24606;51.992;4.198;2024-01-30T14:11:25;9.30;99.90
38854;DHT22;24606;51.992;4.198;2024-01-30T14:16:29;9.30;99.90
38854;DHT22;24606;51.992;4.198;2024-01-30T14:21:33;9.00;99.90
38854;DHT22;24606;51.992;4.198;2024-01-30T14:26:36;9.40;99.90
38854;DHT22;24606;51.992;4.198;2024-01-30T14:31:38;9.20;99.90
38854;DHT22;24606;51.992;4.198;2024-01-30T14:36:41;9.50;99.90
38854;DHT22;24606;51.992;4.198;2024-01-30T14:41:43;8.90;99.90
38854;DHT22;24606;51.992;4.198;2024-01-30T14:46:45;9.00;99.90
38854;DHT22;24606;51.992;4.198;2024-01-30T14:51:49;8.70;99.90
38854;DHT22;24606;51.992;4.198;2024-01-30T14:56:51;8.70;99.90
38854;DHT22;24606;51.992;4.198;2024-01-30T15:01:53;9.30;99.90
38854;DHT22;24606;51.992;4.198;2024-01-30T15:06:56;9.30;99.90
38854;DHT22;24606;51.992;4.198;2024-01-30T15:11:58;9.10;99.90
38854;DHT22;24606;51.992;4.198;2024-01-30T15:17:00;8.70;99.90
38854;DHT22;24606;51.992;4.198;2024-01-30T15:22:04;9.10;99.90
38854;DHT22;24606;51.992;4.198;2024-01-30T15:27:06;9.00;99.90
38854;DHT22;24606;51.992;4.198;2024-01-30T15:32:09;9.00;99.90
38854;DHT22;24606;51.992;4.198;2024-01-30T15:37:12;8.60;99.90
38854;DHT22;24606;51.992;4.198;2024-01-30T15:42:14;9.10;99.90
38854;DHT22;24606;51.992;4.198;2024-01-30T15:47:16;8.90;99.90
38854;DHT22;24606;51.992;4.198;2024-01-30T15:52:20;8.90;99.90
38854;DHT22;24606;51.992;4.198;2024-01-30T15:57:21;9.60;99.90
38854;DHT22;24606;51.992;4.198;2024-01-30T16:02:23;9.40;99.90
38854;DHT22;24606;51.992;4.198;2024-01-30T16:07:28;8.90;99.90
38854;DHT22;24606;51.992;4.198;2024-01-30T16:12:31;9.10;99.90
38854;DHT22;24606;51.992;4.198;2024-01-30T16:17:33;9.90;99.90
38854;DHT22;24606;51.992;4.198;2024-01-30T16:22:37;9.50;99.90
38854;DHT22;24606;51.992;4.198;2024-01-30T16:27:39;9.40;99.90
38854;DHT22;24606;51.992;4.198;2024-01-30T16:32:41;10.30;99.90
38854;DHT22;24606;51.992;4.198;2024-01-30T16:37:44;9.30;99.90
38854;DHT22;24606;51.992;4.198;2024-01-30T16:42:46;10.70;99.90
38854;DHT22;24606;51.992;4.198;2024-01-30T16:47:48;10.40;99.90
38854;DHT22;24606;51.992;4.198;2024-01-30T16:52:52;9.60;99.90
38854;DHT22;24606;51.992;4.198;2024-01-30T16:57:54;10.00;99.90
38854;DHT22;24606;51.992;4.198;2024-01-30T17:02:56;9.10;99.90
38854;DHT22;24606;51.992;4.198;2024-01-30T17:08:00;9.20;99.90
38854;DHT22;24606;51.992;4.198;2024-01-30T17:13:02;10.00;99.90
38854;DHT22;24606;51.992;4.198;2024-01-30T17:18:04;10.70;99.90
38854;DHT22;24606;51.992;4.198;2024-01-30T17:23:08;11.60;99.90
38854;DHT22;24606;51.992;4.198;2024-01-30T17:28:11;10.30;99.90
38854;DHT22;24606;51.992;4.198;2024-01-30T17:33:14;10.90;99.90
38854;DHT22;24606;51.992;4.198;2024-01-30T17:38:17;11.00;99.90
38854;DHT22;24606;51.992;4.198;2024-01-30T17:43:19;10.70;99.90
38854;DHT22;24606;51.992;4.198;2024-01-30T17:48:21;10.40;99.90
38854;DHT22;24606;51.992;4.198;2024-01-30T17:53:24;10.20;99.90
38854;DHT22;24606;51.992;4.198;2024-01-30T17:58:27;10.30;99.90
38854;DHT22;24606;51.992;4.198;2024-01-30T18:03:29;9.60;99.90
38854;DHT22;24606;51.992;4.198;2024-01-30T18:08:33;9.10;99.90
38854;DHT22;24606;51.992;4.198;2024-01-30T18:13:35;9.30;99.90
38854;DHT22;24606;51.992;4.198;2024-01-30T18:18:37;8.80;99.90
38854;DHT22;24606;51.992;4.198;2024-01-30T18:23:40;8.70;99.90
38854;DHT22;24606;51.992;4.198;2024-01-30T18:28:42;8.50;99.90
38854;DHT22;24606;51.992;4.198;2024-01-30T18:33:45;8.80;99.90
38854;DHT22;24606;51.992;4.198;2024-01-30T18:38:56;8.90;99.90
38854;DHT22;24606;51.992;4.198;2024-01-30T18:43:58;8.80;99.90
38854;DHT22;24606;51.992;4.198;2024-01-30T18:49:02;8.30;99.90
38854;DHT22;24606;51.992;4.198;2024-01-30T18:54:06;8.30;99.90
38854;DHT22;24606;51.992;4.198;2024-01-30T18:59:08;9.50;99.90
38854;DHT22;24606;51.992;4.198;2024-01-30T19:04:10;10.20;99.90
38854;DHT22;24606;51.992;4.198;2024-01-30T19:09:13;11.50;99.90
38854;DHT22;24606;51.992;4.198;2024-01-30T19:14:15;10.60;99.90
38854;DHT22;24606;51.992;4.198;2024-01-30T19:19:17;10.60;99.90
38854;DHT22;24606;51.992;4.198;2024-01-30T19:24:21;10.60;99.90
38854;DHT22;24606;51.992;4.198;2024-01-30T19:29:23;11.30;99.90
38854;DHT22;24606;51.992;4.198;2024-01-30T19:34:25;11.40;99.90
38854;DHT22;24606;51.992;4.198;2024-01-30T19:39:28;12.40;99.90
38854;DHT22;24606;51.992;4.198;2024-01-30T19:44:31;11.80;99.90
38854;DHT22;24606;51.992;4.198;2024-01-30T19:49:32;12.30;99.90
38854;DHT22;24606;51.992;4.198;2024-01-30T19:54:36;11.30;99.90
38854;DHT22;24606;51.992;4.198;2024-01-30T19:59:39;10.90;99.90
38854;DHT22;24606;51.992;4.198;2024-01-30T20:04:41;10.30;99.90
38854;DHT22;24606;51.992;4.198;2024-01-30T20:09:46;11.60;99.90
38854;DHT22;24606;51.992;4.198;2024-01-30T20:14:48;11.60;99.90
38854;DHT22;24606;51.992;4.198;2024-01-30T20:19:51;11.80;99.90
38854;DHT22;24606;51.992;4.198;2024-01-30T20:24:55;10.70;99.90
38854;DHT22;24606;51.992;4.198;2024-01-30T20:29:59;12.50;99.90
38854;DHT22;24606;51.992;4.198;2024-01-30T20:35:01;12.20;99.90
38854;DHT22;24606;51.992;4.198;2024-01-30T20:40:06;13.00;99.90
38854;DHT22;24606;51.992;4.198;2024-01-30T20:45:08;12.70;99.90
38854;DHT22;24606;51.992;4.198;2024-01-30T20:50:10;13.00;99.90
38854;DHT22;24606;51.992;4.198;2024-01-30T20:55:13;13.10;99.90
38854;DHT22;24606;51.992;4.198;2024-01-30T21:00:16;13.60;99.90
38854;DHT22;24606;51.992;4.198;2024-01-30T21:05:18;13.90;99.90
38854;DHT22;24606;51.992;4.198;2024-01-30T21:10:24;14.20;99.90
38854;DHT22;24606;51.992;4.198;2024-01-30T21:15:26;13.40;99.90
38854;DHT22;24606;51.992;4.198;2024-01-30T21:20:28;13.60;99.90
38854;DHT22;24606;51.992;4.198;2024-01-30T21:25:32;13.00;99.90
38854;DHT22;24606;51.992;4.198;2024-01-30T21:30:34;13.50;99.90
38854;DHT22;24606;51.992;4.198;2024-01-30T21:35:36;14.10;99.90
38854;DHT22;24606;51.992;4.198;2024-01-30T21:40:39;14.10;99.90
38854;DHT22;24606;51.992;4.198;2024-01-30T21:45:41;14.10;99.90
38854;DHT22;24606;51.992;4.198;2024-01-30T21:50:43;13.70;99.90
38854;DHT22;24606;51.992;4.198;2024-01-30T21:55:47;12.10;99.90
38854;DHT22;24606;51.992;4.198;2024-01-30T22:00:49;12.40;99.90
38854;DHT22;24606;51.992;4.198;2024-01-30T22:05:51;13.50;99.90
38854;DHT22;24606;51.992;4.198;2024-01-30T22:10:55;14.20;99.90
38854;DHT22;24606;51.992;4.198;2024-01-30T22:15:57;14.30;99.90
38854;DHT22;24606;51.992;4.198;2024-01-30T22:21:00;14.50;99.90
38854;DHT22;24606;51.992;4.198;2024-01-30T22:26:09;14.50;99.90
38854;DHT22;24606;51.992;4.198;2024-01-30T22:31:11;14.50;99.90
38854;DHT22;24606;51.992;4.198;2024-01-30T22:36:13;14.40;99.90
38854;DHT22;24606;51.992;4.198;2024-01-30T22:41:22;14.50;99.90
38854;DHT22;24606;51.992;4.198;2024-01-30T22:46:24;14.50;99.90
38854;DHT22;24606;51.992;4.198;2024-01-30T22:51:26;14.60;99.90
38854;DHT22;24606;51.992;4.198;2024-01-30T22:56:30;14.50;99.90
38854;DHT22;24606;51.992;4.198;2024-01-30T23:01:32;14.50;99.90
38854;DHT22;24606;51.992;4.198;2024-01-30T23:06:34;14.60;99.90
38854;DHT22;24606;51.992;4.198;2024-01-30T23:11:39;14.30;99.90
38854;DHT22;24606;51.992;4.198;2024-01-30T23:16:48;13.20;99.90
38854;DHT22;24606;51.992;4.198;2024-01-30T23:21:50;13.50;99.90
38854;DHT22;24606;51.992;4.198;2024-01-30T23:26:54;13.80;99.90
38854;DHT22;24606;51.992;4.198;2024-01-30T23:31:56;14.00;99.90
38854;DHT22;24606;51.992;4.198;2024-01-30T23:36:58;14.30;99.90
38854;DHT22;24606;51.992;4.198;2024-01-30T23:42:01;14.50;99.90
38854;DHT22;24606;51.992;4.198;2024-01-30T23:47:04;14.60;99.90
38854;DHT22;24606;51.992;4.198;2024-01-30T23:52:06;14.50;99.90
38854;DHT22;24606;51.992;4.198;2024-01-30T23:57:09;14.50;99.90
